createdAt,value
2018-12-31T00:01:05.642Z,99359.06
2018-12-31T00:03:38.079Z,99356.98
2018-12-31T00:06:10.244Z,99359.74
2018-12-31T00:08:42.566Z,99358.98
2018-12-31T00:11:14.723Z,99356.94
2018-12-31T00:13:46.945Z,99365.19
2018-12-31T00:16:19.208Z,99366.41
2018-12-31T00:18:51.427Z,99370.72
2018-12-31T00:21:23.585Z,99364.49
2018-12-31T00:23:55.795Z,99362.77
2018-12-31T00:26:28.103Z,99360.69
2018-12-31T00:29:00.472Z,99357.07
2018-12-31T00:31:32.890Z,99354.62
2018-12-31T00:34:05.352Z,99350.17
2018-12-31T00:36:37.682Z,99348.50
2018-12-31T00:39:10.316Z,99346.18
2018-12-31T00:41:42.713Z,99346.79
2018-12-31T00:44:15.061Z,99349.98
2018-12-31T00:46:47.358Z,99344.63
2018-12-31T00:49:19.564Z,99350.99
2018-12-31T00:51:51.856Z,99357.48
2018-12-31T00:54:24.102Z,99364.38
2018-12-31T00:56:56.407Z,99367.84
2018-12-31T00:59:28.726Z,99382.23
2018-12-31T01:02:00.899Z,99381.22
2018-12-31T01:04:33.105Z,99376.52
2018-12-31T01:07:05.476Z,99380.17
2018-12-31T01:09:37.694Z,99383.41
2018-12-31T01:12:10.094Z,99384.13
2018-12-31T01:14:42.330Z,99380.23
2018-12-31T01:17:14.625Z,99378.76
2018-12-31T01:19:46.854Z,99370.45
2018-12-31T01:22:19.025Z,99373.46
2018-12-31T01:24:51.370Z,99377.31
2018-12-31T01:27:23.567Z,99373.16
2018-12-31T01:29:55.788Z,99372.70
2018-12-31T01:32:27.961Z,99377.77
2018-12-31T01:35:00.250Z,99364.34
2018-12-31T01:37:32.552Z,99369.14
2018-12-31T01:40:05.241Z,99370.39
2018-12-31T01:42:37.569Z,99365.59
2018-12-31T01:45:10.234Z,99356.05
2018-12-31T01:47:42.426Z,99356.28
2018-12-31T01:50:14.867Z,99364.48
2018-12-31T01:52:47.189Z,99366.11
2018-12-31T01:55:19.424Z,99367.99
2018-12-31T01:57:51.739Z,99367.38
2018-12-31T02:00:23.988Z,99363.37
2018-12-31T02:02:56.383Z,99356.60
2018-12-31T02:05:28.756Z,99353.49
2018-12-31T02:08:00.956Z,99355.15
2018-12-31T02:10:33.176Z,99355.23
2018-12-31T02:13:05.486Z,99354.62
2018-12-31T02:15:37.721Z,99353.75
2018-12-31T02:18:09.877Z,99345.17
2018-12-31T02:20:42.202Z,99343.42
2018-12-31T02:23:14.358Z,99345.73
2018-12-31T02:25:46.651Z,99346.00
2018-12-31T02:28:19.052Z,99353.52
2018-12-31T02:30:51.390Z,99356.09
2018-12-31T02:33:23.648Z,99356.73
2018-12-31T02:35:56.006Z,99356.48
2018-12-31T02:38:28.185Z,99353.17
2018-12-31T02:41:00.469Z,99355.79
2018-12-31T02:43:32.624Z,99358.77
2018-12-31T02:46:04.942Z,99357.77
2018-12-31T02:48:37.312Z,99353.30
2018-12-31T02:51:09.516Z,99350.73
2018-12-31T02:53:41.675Z,99344.67
2018-12-31T02:56:13.888Z,99349.17
2018-12-31T02:58:46.097Z,99344.98
2018-12-31T03:01:18.308Z,99342.44
2018-12-31T03:03:50.475Z,99346.21
2018-12-31T03:06:22.702Z,99343.39
2018-12-31T03:08:54.865Z,99349.00
2018-12-31T03:11:27.173Z,99340.63
2018-12-31T03:13:59.351Z,99338.28
2018-12-31T03:16:31.565Z,99328.84
2018-12-31T03:19:03.958Z,99310.22
2018-12-31T03:21:36.199Z,99308.50
2018-12-31T03:24:08.358Z,99301.64
2018-12-31T03:26:40.566Z,99304.38
2018-12-31T03:29:12.814Z,99302.92
2018-12-31T03:31:45.016Z,99303.72
2018-12-31T03:34:17.414Z,99309.16
2018-12-31T03:36:49.847Z,99308.45
2018-12-31T03:39:22.008Z,99311.17
2018-12-31T03:41:54.318Z,99311.66
2018-12-31T03:44:27.231Z,99314.16
2018-12-31T03:46:59.469Z,99314.05
2018-12-31T03:49:31.823Z,99320.44
2018-12-31T03:52:04.233Z,99316.23
2018-12-31T03:54:36.407Z,99321.22
2018-12-31T03:57:08.631Z,99324.86
2018-12-31T03:59:40.945Z,99315.79
2018-12-31T04:02:13.281Z,99318.74
2018-12-31T04:04:45.807Z,99315.02
2018-12-31T04:07:18.120Z,99315.75
2018-12-31T04:09:50.405Z,99319.08
2018-12-31T04:12:22.653Z,99324.35
2018-12-31T04:14:54.826Z,99320.33
2018-12-31T04:17:27.160Z,99319.05
2018-12-31T04:19:59.479Z,99323.42
2018-12-31T04:22:31.709Z,99320.97
2018-12-31T04:25:04.177Z,99321.27
2018-12-31T04:27:36.388Z,99318.36
2018-12-31T04:30:08.650Z,99325.93
2018-12-31T04:32:40.858Z,99328.48
2018-12-31T04:35:13.188Z,99331.00
2018-12-31T04:37:45.492Z,99335.12
2018-12-31T04:40:17.788Z,99338.70
2018-12-31T04:42:50.026Z,99350.23
2018-12-31T04:45:22.194Z,99350.91
2018-12-31T04:47:54.406Z,99346.13
2018-12-31T04:50:26.587Z,99347.84
2018-12-31T04:52:58.794Z,99354.84
2018-12-31T04:55:30.965Z,99346.27
2018-12-31T04:58:03.501Z,99335.56
2018-12-31T05:00:35.735Z,99339.47
2018-12-31T05:03:07.942Z,99344.13
2018-12-31T05:05:40.109Z,99340.67
2018-12-31T05:08:12.316Z,99339.45
2018-12-31T05:10:44.487Z,99349.83
2018-12-31T05:13:16.693Z,99345.63
2018-12-31T05:15:48.989Z,99348.74
2018-12-31T05:18:21.222Z,99358.44
2018-12-31T05:20:53.495Z,99364.16
2018-12-31T05:23:25.699Z,99355.91
2018-12-31T05:25:57.978Z,99355.77
2018-12-31T05:28:30.301Z,99350.36
2018-12-31T05:31:02.565Z,99342.45
2018-12-31T05:33:35.001Z,99347.66
2018-12-31T05:36:07.327Z,99349.30
2018-12-31T05:38:39.567Z,99353.48
2018-12-31T05:41:11.833Z,99348.56
2018-12-31T05:43:44.044Z,99347.11
2018-12-31T05:46:16.439Z,99350.56
2018-12-31T05:48:48.677Z,99347.51
2018-12-31T05:51:20.857Z,99349.03
2018-12-31T05:53:53.069Z,99356.30
2018-12-31T05:56:25.362Z,99352.42
2018-12-31T05:58:57.602Z,99354.25
2018-12-31T06:01:29.808Z,99347.06
2018-12-31T06:04:02.146Z,99336.25
2018-12-31T06:06:34.332Z,99348.34
2018-12-31T06:09:08.840Z,99358.03
2018-12-31T06:11:41.007Z,99351.19
2018-12-31T06:14:13.207Z,99353.67
2018-12-31T06:16:45.416Z,99361.01
2018-12-31T06:19:17.621Z,99363.54
2018-12-31T06:21:50.024Z,99363.45
2018-12-31T06:24:22.344Z,99371.72
2018-12-31T06:26:54.552Z,99375.23
2018-12-31T06:29:26.767Z,99375.06
2018-12-31T06:31:58.977Z,99374.63
2018-12-31T06:34:31.423Z,99377.63
2018-12-31T06:37:03.661Z,99383.19
2018-12-31T06:39:35.877Z,99384.03
2018-12-31T06:42:08.086Z,99387.77
2018-12-31T06:44:40.377Z,99389.59
2018-12-31T06:47:12.691Z,99395.42
2018-12-31T06:49:44.912Z,99396.35
2018-12-31T06:52:17.118Z,99394.55
2018-12-31T06:54:49.564Z,99400.56
2018-12-31T06:57:21.936Z,99403.94
2018-12-31T06:59:54.494Z,99403.94
2018-12-31T07:02:26.928Z,99410.94
2018-12-31T07:04:59.299Z,99412.77
2018-12-31T07:07:31.671Z,99405.36
2018-12-31T07:10:04.135Z,99397.98
2018-12-31T07:12:36.503Z,99398.80
2018-12-31T07:15:09.354Z,99402.84
2018-12-31T07:17:41.579Z,99405.98
2018-12-31T07:20:13.895Z,99406.93
2018-12-31T07:22:46.103Z,99403.64
2018-12-31T07:25:18.318Z,99396.48
2018-12-31T07:27:50.657Z,99396.88
2018-12-31T07:30:23.129Z,99406.76
2018-12-31T07:32:55.499Z,99402.64
2018-12-31T07:35:27.964Z,99404.11
2018-12-31T07:38:00.298Z,99399.91
2018-12-31T07:40:32.520Z,99406.52
2018-12-31T07:43:04.823Z,99407.84
2018-12-31T07:45:37.033Z,99419.20
2018-12-31T07:48:09.344Z,99421.45
2018-12-31T07:50:41.559Z,99421.67
2018-12-31T07:53:13.769Z,99426.38
2018-12-31T07:55:45.991Z,99423.42
2018-12-31T07:58:18.200Z,99422.43
2018-12-31T08:00:50.445Z,99415.90
2018-12-31T08:03:22.653Z,99409.25
2018-12-31T08:05:54.962Z,99409.06
2018-12-31T08:08:27.167Z,99410.98
2018-12-31T08:10:59.385Z,99414.23
2018-12-31T08:13:31.693Z,99421.80
2018-12-31T08:16:04.010Z,99423.19
2018-12-31T08:18:36.219Z,99427.61
2018-12-31T08:21:08.524Z,99428.20
2018-12-31T08:23:40.729Z,99434.34
2018-12-31T08:26:12.934Z,99439.06
2018-12-31T08:28:45.138Z,99430.13
2018-12-31T08:31:17.339Z,99425.22
2018-12-31T08:33:49.656Z,99429.48
2018-12-31T08:36:21.909Z,99426.36
2018-12-31T08:38:54.253Z,99428.87
2018-12-31T08:41:26.466Z,99435.00
2018-12-31T08:43:58.775Z,99432.03
2018-12-31T08:46:30.994Z,99428.36
2018-12-31T08:49:03.292Z,99425.52
2018-12-31T08:51:35.505Z,99418.89
2018-12-31T08:54:07.703Z,99405.03
2018-12-31T08:56:40.230Z,99399.15
2018-12-31T08:59:12.429Z,99388.28
2018-12-31T09:01:44.825Z,99387.11
2018-12-31T09:04:17.189Z,99384.55
2018-12-31T09:06:49.664Z,99384.02
2018-12-31T09:09:21.901Z,99390.09
2018-12-31T09:11:54.119Z,99391.23
2018-12-31T09:14:26.399Z,99398.52
2018-12-31T09:16:58.711Z,99399.03
2018-12-31T09:19:30.919Z,99404.39
2018-12-31T09:22:03.136Z,99413.95
2018-12-31T09:24:35.348Z,99420.00
2018-12-31T09:27:07.560Z,99423.06
2018-12-31T09:29:39.901Z,99434.70
2018-12-31T09:32:12.144Z,99434.97
2018-12-31T09:34:44.444Z,99433.83
2018-12-31T09:37:16.656Z,99444.98
2018-12-31T09:39:48.865Z,99443.27
2018-12-31T09:42:21.073Z,99444.12
2018-12-31T09:44:53.276Z,99446.59
2018-12-31T09:47:25.486Z,99454.36
2018-12-31T09:49:57.687Z,99449.00
2018-12-31T09:52:29.905Z,99450.25
2018-12-31T09:55:02.208Z,99438.80
2018-12-31T09:57:34.563Z,99440.39
2018-12-31T10:00:08.048Z,99432.92
2018-12-31T10:02:40.311Z,99423.34
2018-12-31T10:05:12.614Z,99414.07
2018-12-31T10:07:44.823Z,99406.52
2018-12-31T10:10:17.028Z,99411.27
2018-12-31T10:12:49.253Z,99425.98
2018-12-31T10:15:21.467Z,99426.98
2018-12-31T10:17:53.680Z,99421.66
2018-12-31T10:20:25.887Z,99426.27
2018-12-31T10:22:58.100Z,99426.59
2018-12-31T10:25:30.409Z,99422.37
2018-12-31T10:28:02.615Z,99424.20
2018-12-31T10:30:34.828Z,99424.92
2018-12-31T10:33:07.149Z,99422.31
2018-12-31T10:35:39.459Z,99422.84
2018-12-31T10:38:11.670Z,99415.30
2018-12-31T10:40:43.871Z,99409.80
2018-12-31T10:43:16.077Z,99405.56
2018-12-31T10:45:48.284Z,99396.75
2018-12-31T10:48:20.493Z,99392.59
2018-12-31T10:50:52.815Z,99390.09
2018-12-31T10:53:26.024Z,99389.53
2018-12-31T10:55:58.329Z,99385.19
2018-12-31T10:58:30.537Z,99383.65
2018-12-31T11:01:02.947Z,99386.11
2018-12-31T11:03:35.166Z,99384.77
2018-12-31T11:06:07.376Z,99382.53
2018-12-31T11:08:39.592Z,99383.03
2018-12-31T11:11:11.833Z,99386.11
2018-12-31T11:13:44.045Z,99384.37
2018-12-31T11:16:16.244Z,99382.98
2018-12-31T11:18:48.549Z,99381.49
2018-12-31T11:21:20.755Z,99379.95
2018-12-31T11:23:52.968Z,99372.11
2018-12-31T11:26:25.179Z,99361.81
2018-12-31T11:28:57.369Z,99358.78
2018-12-31T11:31:30.393Z,99365.34
2018-12-31T11:34:02.970Z,99355.33
2018-12-31T11:36:35.175Z,99352.17
2018-12-31T11:39:09.371Z,99355.69
2018-12-31T11:41:41.674Z,99354.59
2018-12-31T11:44:13.888Z,99348.69
2018-12-31T11:46:46.196Z,99342.33
2018-12-31T11:49:18.416Z,99339.42
2018-12-31T11:51:50.641Z,99345.91
2018-12-31T11:54:22.951Z,99343.72
2018-12-31T11:56:55.157Z,99345.52
2018-12-31T11:59:27.771Z,99337.67
2018-12-31T12:02:00.199Z,99333.84
2018-12-31T12:04:32.512Z,99338.01
2018-12-31T12:07:04.789Z,99337.16
2018-12-31T12:09:36.997Z,99335.03
2018-12-31T12:12:09.198Z,99328.06
2018-12-31T12:14:41.787Z,99331.86
2018-12-31T12:17:14.941Z,99329.86
2018-12-31T12:19:47.152Z,99326.30
2018-12-31T12:22:19.457Z,99320.30
2018-12-31T12:24:51.939Z,99315.53
2018-12-31T12:27:24.147Z,99313.38
2018-12-31T12:29:56.436Z,99312.77
2018-12-31T12:32:28.647Z,99312.77
2018-12-31T12:35:01.126Z,99321.38
2018-12-31T12:37:33.353Z,99320.59
2018-12-31T12:40:05.819Z,99330.73
2018-12-31T12:42:38.031Z,99336.48
2018-12-31T12:45:10.529Z,99336.69
2018-12-31T12:47:42.741Z,99338.51
2018-12-31T12:50:14.942Z,99340.50
2018-12-31T12:52:47.253Z,99342.91
2018-12-31T12:55:19.834Z,99345.78
2018-12-31T12:57:52.050Z,99356.23
2018-12-31T13:00:24.458Z,99360.84
2018-12-31T13:02:56.719Z,99355.42
2018-12-31T13:05:29.114Z,99357.34
2018-12-31T13:08:01.768Z,99360.13
2018-12-31T13:10:34.060Z,99356.44
2018-12-31T13:13:06.260Z,99358.20
2018-12-31T13:15:38.984Z,99354.94
2018-12-31T13:18:11.327Z,99357.50
2018-12-31T13:20:43.565Z,99352.58
2018-12-31T13:23:15.849Z,99356.49
2018-12-31T13:25:48.187Z,99355.97
2018-12-31T13:28:20.434Z,99353.73
2018-12-31T13:30:52.779Z,99348.38
2018-12-31T13:33:25.122Z,99349.50
2018-12-31T13:35:57.340Z,99348.33
2018-12-31T13:38:29.727Z,99340.78
2018-12-31T13:41:02.007Z,99342.84
2018-12-31T13:43:34.219Z,99342.16
2018-12-31T13:46:06.702Z,99340.60
2018-12-31T13:48:38.916Z,99346.55
2018-12-31T13:51:11.133Z,99348.67
2018-12-31T13:53:43.340Z,99352.44
2018-12-31T13:56:15.642Z,99356.00
2018-12-31T13:58:47.848Z,99357.49
2018-12-31T14:01:20.158Z,99356.66
2018-12-31T14:03:52.404Z,99357.09
2018-12-31T14:06:24.786Z,99356.94
2018-12-31T14:08:56.996Z,99354.05
2018-12-31T14:11:29.297Z,99355.66
2018-12-31T14:14:01.514Z,99359.19
2018-12-31T14:16:33.832Z,99358.38
2018-12-31T14:19:06.080Z,99359.36
2018-12-31T14:21:38.290Z,99363.31
2018-12-31T14:24:10.444Z,99365.48
2018-12-31T14:26:42.745Z,99369.65
2018-12-31T14:29:14.995Z,99372.98
2018-12-31T14:31:47.401Z,99376.63
2018-12-31T14:34:19.763Z,99385.28
2018-12-31T14:36:51.975Z,99387.30
2018-12-31T14:39:24.125Z,99388.56
2018-12-31T14:41:56.334Z,99386.68
2018-12-31T14:44:28.492Z,99390.42
2018-12-31T14:47:00.693Z,99391.31
2018-12-31T14:49:32.960Z,99391.55
2018-12-31T14:52:05.476Z,99391.97
2018-12-31T14:54:37.643Z,99391.97
2018-12-31T14:57:09.854Z,99397.88
2018-12-31T14:59:42.112Z,99401.01
2018-12-31T15:02:14.427Z,99406.09
2018-12-31T15:04:46.632Z,99408.96
2018-12-31T15:07:19.024Z,99410.56
2018-12-31T15:09:51.182Z,99410.97
2018-12-31T15:12:23.473Z,99411.98
2018-12-31T15:14:55.739Z,99416.33
2018-12-31T15:17:28.031Z,99412.89
2018-12-31T15:20:00.198Z,99412.05
2018-12-31T15:22:32.489Z,99406.30
2018-12-31T15:25:04.926Z,99398.14
2018-12-31T15:27:37.412Z,99400.48
2018-12-31T15:30:10.610Z,99400.59
2018-12-31T15:32:43.038Z,99396.89
2018-12-31T15:35:15.287Z,99392.68
2018-12-31T15:37:47.872Z,99404.92
2018-12-31T15:40:20.239Z,99406.78
2018-12-31T15:42:52.447Z,99409.66
2018-12-31T15:45:24.835Z,99408.33
2018-12-31T15:47:57.320Z,99405.53
2018-12-31T15:50:29.487Z,99406.69
2018-12-31T15:53:01.699Z,99401.21
2018-12-31T15:55:33.851Z,99409.84
2018-12-31T15:58:06.595Z,99403.20
2018-12-31T16:00:39.100Z,99415.34
2018-12-31T16:03:11.546Z,99416.41
2018-12-31T16:05:43.982Z,99417.83
2018-12-31T16:08:16.707Z,99415.53
2018-12-31T16:10:49.040Z,99416.17
2018-12-31T16:13:21.421Z,99409.39
2018-12-31T16:15:53.844Z,99405.81
2018-12-31T16:18:26.712Z,99402.12
2018-12-31T16:20:59.134Z,99410.56
2018-12-31T16:23:31.476Z,99401.86
2018-12-31T16:26:03.682Z,99404.75
2018-12-31T16:28:36.264Z,99409.42
2018-12-31T16:31:08.523Z,99409.27
2018-12-31T16:33:40.723Z,99412.21
2018-12-31T16:36:12.897Z,99416.95
2018-12-31T16:38:45.479Z,99421.14
2018-12-31T16:41:17.647Z,99420.48
2018-12-31T16:43:49.897Z,99414.34
2018-12-31T16:46:22.139Z,99417.23
2018-12-31T16:48:54.859Z,99410.78
2018-12-31T16:51:27.280Z,99418.66
2018-12-31T16:53:59.742Z,99417.37
2018-12-31T16:56:32.062Z,99412.97
2018-12-31T16:59:06.399Z,99409.60
2018-12-31T17:01:38.584Z,99412.81
2018-12-31T17:04:11.046Z,99407.84
2018-12-31T17:06:43.413Z,99413.86
2018-12-31T17:09:16.079Z,99414.33
2018-12-31T17:11:48.403Z,99410.41
2018-12-31T17:14:20.771Z,99412.14
2018-12-31T17:16:53.186Z,99409.20
2018-12-31T17:19:25.556Z,99420.53
2018-12-31T17:21:57.875Z,99421.11
2018-12-31T17:24:30.240Z,99414.48
2018-12-31T17:27:02.561Z,99408.40
2018-12-31T17:29:34.922Z,99415.05
2018-12-31T17:32:07.246Z,99416.88
2018-12-31T17:34:39.607Z,99419.59
2018-12-31T17:37:11.929Z,99417.25
2018-12-31T17:39:44.301Z,99417.46
2018-12-31T17:42:16.618Z,99415.74
2018-12-31T17:44:48.982Z,99420.78
2018-12-31T17:47:21.319Z,99416.88
2018-12-31T17:49:53.705Z,99416.67
2018-12-31T17:52:26.131Z,99421.95
2018-12-31T17:54:58.495Z,99421.91
2018-12-31T17:57:30.810Z,99426.39
2018-12-31T18:00:03.376Z,99419.38
2018-12-31T18:02:35.704Z,99422.15
2018-12-31T18:05:08.265Z,99422.15
2018-12-31T18:07:40.705Z,99417.98
2018-12-31T18:10:13.139Z,99417.83
2018-12-31T18:12:45.330Z,99419.69
2018-12-31T18:15:17.674Z,99424.69
2018-12-31T18:17:49.974Z,99425.97
2018-12-31T18:20:22.410Z,99426.53
2018-12-31T18:22:54.612Z,99431.39
2018-12-31T18:25:26.826Z,99431.46
2018-12-31T18:27:59.123Z,99432.80
2018-12-31T18:30:31.483Z,99428.16
2018-12-31T18:33:03.817Z,99428.47
2018-12-31T18:35:36.191Z,99427.81
2018-12-31T18:38:08.640Z,99424.38
2018-12-31T18:40:41.012Z,99418.12
2018-12-31T18:43:17.286Z,99422.49
2018-12-31T18:45:49.772Z,99423.00
2018-12-31T18:48:22.198Z,99422.13
2018-12-31T18:50:54.441Z,99425.02
2018-12-31T18:53:27.762Z,99430.37
2018-12-31T18:55:59.983Z,99437.78
2018-12-31T18:58:32.386Z,99439.66
2018-12-31T19:01:04.627Z,99444.87
2018-12-31T19:03:36.803Z,99448.89
2018-12-31T19:06:09.022Z,99450.48
2018-12-31T19:08:42.024Z,99453.05
2018-12-31T19:11:14.542Z,99454.91
2018-12-31T19:13:47.106Z,99453.67
2018-12-31T19:16:19.487Z,99457.12
2018-12-31T19:18:52.027Z,99452.51
2018-12-31T19:21:24.640Z,99457.88
2018-12-31T19:23:57.406Z,99458.17
2018-12-31T19:26:29.925Z,99461.13
2018-12-31T19:29:02.395Z,99466.26
2018-12-31T19:31:34.904Z,99463.99
2018-12-31T19:34:07.665Z,99469.48
2018-12-31T19:36:40.172Z,99466.88
2018-12-31T19:39:12.635Z,99467.68
2018-12-31T19:41:45.247Z,99467.55
2018-12-31T19:44:18.017Z,99471.22
2018-12-31T19:46:50.533Z,99472.08
2018-12-31T19:49:22.994Z,99473.58
2018-12-31T19:51:55.508Z,99471.44
2018-12-31T19:54:28.181Z,99474.27
2018-12-31T19:57:00.684Z,99468.34
2018-12-31T19:59:32.961Z,99459.88
2018-12-31T20:02:05.534Z,99452.52
2018-12-31T20:04:38.050Z,99448.50
2018-12-31T20:07:10.420Z,99442.26
2018-12-31T20:09:42.732Z,99447.13
2018-12-31T20:12:15.206Z,99441.42
2018-12-31T20:14:47.828Z,99439.20
2018-12-31T20:17:20.194Z,99442.90
2018-12-31T20:19:52.520Z,99441.84
2018-12-31T20:22:24.889Z,99435.92
2018-12-31T20:24:57.218Z,99447.41
2018-12-31T20:27:29.674Z,99439.14
2018-12-31T20:30:02.004Z,99434.11
2018-12-31T20:32:34.377Z,99436.10
2018-12-31T20:35:06.922Z,99434.48
2018-12-31T20:37:39.330Z,99430.89
2018-12-31T20:40:11.798Z,99432.88
2018-12-31T20:42:44.219Z,99438.38
2018-12-31T20:45:16.590Z,99442.07
2018-12-31T20:47:49.192Z,99438.60
2018-12-31T20:50:21.595Z,99435.52
2018-12-31T20:52:54.120Z,99433.51
2018-12-31T20:55:26.912Z,99430.80
2018-12-31T20:57:59.501Z,99430.92
2018-12-31T21:00:32.066Z,99427.23
2018-12-31T21:03:04.679Z,99424.25
2018-12-31T21:05:37.157Z,99425.47
2018-12-31T21:08:09.670Z,99430.84
2018-12-31T21:10:42.138Z,99427.72
2018-12-31T21:13:14.499Z,99427.86
2018-12-31T21:15:46.916Z,99423.33
2018-12-31T21:18:19.374Z,99422.13
2018-12-31T21:20:51.808Z,99421.89
2018-12-31T21:23:24.362Z,99422.18
2018-12-31T21:25:58.546Z,99420.69
2018-12-31T21:28:30.768Z,99418.60
2018-12-31T21:31:03.202Z,99424.14
2018-12-31T21:33:35.575Z,99420.77
2018-12-31T21:36:07.891Z,99423.66
2018-12-31T21:38:40.135Z,99427.73
2018-12-31T21:41:12.811Z,99426.91
2018-12-31T21:43:45.174Z,99422.91
2018-12-31T21:46:17.495Z,99415.22
2018-12-31T21:48:49.738Z,99418.66
2018-12-31T21:51:22.417Z,99420.14
2018-12-31T21:53:54.666Z,99419.00
2018-12-31T21:56:26.962Z,99421.40
2018-12-31T21:58:59.202Z,99422.42
2018-12-31T22:01:31.503Z,99413.98
2018-12-31T22:04:03.974Z,99424.23
2018-12-31T22:06:36.167Z,99418.64
2018-12-31T22:09:09.929Z,99410.28
2018-12-31T22:11:42.251Z,99406.80
2018-12-31T22:14:14.603Z,99408.83
2018-12-31T22:16:46.910Z,99404.01
2018-12-31T22:19:19.257Z,99409.27
2018-12-31T22:21:51.671Z,99410.93
2018-12-31T22:24:24.033Z,99401.00
2018-12-31T22:26:56.447Z,99399.08
2018-12-31T22:29:28.676Z,99399.55
2018-12-31T22:32:00.965Z,99394.06
2018-12-31T22:34:33.273Z,99391.83
2018-12-31T22:37:05.576Z,99387.59
2018-12-31T22:39:37.932Z,99392.72
2018-12-31T22:42:10.125Z,99392.78
2018-12-31T22:44:42.466Z,99392.04
2018-12-31T22:47:14.651Z,99396.20
2018-12-31T22:49:46.988Z,99395.23
2018-12-31T22:52:19.310Z,99402.27
2018-12-31T22:54:51.674Z,99395.48
2018-12-31T22:57:23.866Z,99391.97
2018-12-31T22:59:56.212Z,99389.10
2018-12-31T23:02:28.536Z,99392.47
2018-12-31T23:05:00.905Z,99384.37
2018-12-31T23:07:33.326Z,99387.02
2018-12-31T23:10:06.382Z,99386.63
2018-12-31T23:12:38.708Z,99385.50
2018-12-31T23:15:16.699Z,99381.14
2018-12-31T23:17:49.137Z,99378.41
2018-12-31T23:20:21.883Z,99378.69
2018-12-31T23:22:54.578Z,99377.40
2018-12-31T23:25:27.096Z,99374.95
2018-12-31T23:27:59.435Z,99375.20
2018-12-31T23:30:34.601Z,99375.86
2018-12-31T23:33:07.071Z,99378.33
2018-12-31T23:35:39.436Z,99376.50
2018-12-31T23:38:11.795Z,99372.45
2018-12-31T23:40:44.164Z,99375.76
2018-12-31T23:43:16.566Z,99372.59
2018-12-31T23:45:50.731Z,99375.31
2018-12-31T23:48:23.204Z,99370.60
2018-12-31T23:50:55.580Z,99371.70
2018-12-31T23:53:28.054Z,99368.22
2018-12-31T23:56:00.430Z,99365.70
2018-12-31T23:58:32.803Z,99373.34
